sensor_id;sensor_type;location;lat;lon;timestamp;pressure;altitude;pressure_sealevel;temperature;humidity
50672;BME280;46021;55.882;37.654;2023-07-29T00:01:59;98566.09;;;13.98;97.03
50672;BME280;46021;55.882;37.654;2023-07-29T00:04:26;98553.97;;;13.97;96.80
50672;BME280;46021;55.882;37.654;2023-07-29T00:06:53;98567.97;;;13.96;96.90
50672;BME280;46021;55.882;37.654;2023-07-29T00:09:20;98560.13;;;13.96;97.01
50672;BME280;46021;55.882;37.654;2023-07-29T00:11:47;98567.97;;;13.96;96.91
50672;BME280;46021;55.882;37.654;2023-07-29T00:14:15;98562.84;;;13.95;96.84
50672;BME280;46021;55.882;37.654;2023-07-29T00:16:42;98568.94;;;13.95;96.86
50672;BME280;46021;55.882;37.654;2023-07-29T00:19:09;98568.06;;;13.95;96.65
50672;BME280;46021;55.882;37.654;2023-07-29T00:21:36;98568.94;;;13.95;96.73
50672;BME280;46021;55.882;37.654;2023-07-29T00:24:03;98558.56;;;13.94;96.84
50672;BME280;46021;55.882;37.654;2023-07-29T00:26:30;98558.63;;;13.92;96.42
50672;BME280;46021;55.882;37.654;2023-07-29T00:28:58;98566.50;;;13.92;96.17
50672;BME280;46021;55.882;37.654;2023-07-29T00:31:26;98565.75;;;13.90;96.53
50672;BME280;46021;55.882;37.654;2023-07-29T00:33:53;98550.97;;;13.89;96.46
50672;BME280;46021;55.882;37.654;2023-07-29T00:36:20;98556.41;;;13.86;96.01
50672;BME280;46021;55.882;37.654;2023-07-29T00:38:47;98563.53;;;13.84;96.05
50672;BME280;46021;55.882;37.654;2023-07-29T00:41:15;98567.91;;;13.83;96.22
50672;BME280;46021;55.882;37.654;2023-07-29T00:43:42;98569.59;;;13.84;96.58
50672;BME280;46021;55.882;37.654;2023-07-29T00:46:09;98570.66;;;13.82;96.70
50672;BME280;46021;55.882;37.654;2023-07-29T00:48:39;98573.38;;;13.80;96.71
50672;BME280;46021;55.882;37.654;2023-07-29T00:51:06;98571.66;;;13.79;96.51
50672;BME280;46021;55.882;37.654;2023-07-29T00:53:33;98568.22;;;13.79;96.29
50672;BME280;46021;55.882;37.654;2023-07-29T00:56:01;98566.53;;;13.78;96.68
50672;BME280;46021;55.882;37.654;2023-07-29T00:58:27;98556.16;;;13.76;96.57
50672;BME280;46021;55.882;37.654;2023-07-29T01:00:55;98553.63;;;13.75;96.50
50672;BME280;46021;55.882;37.654;2023-07-29T01:03:22;98562.41;;;13.74;96.53
50672;BME280;46021;55.882;37.654;2023-07-29T01:06:00;98558.22;;;13.71;96.29
50672;BME280;46021;55.882;37.654;2023-07-29T01:08:38;98550.44;;;13.70;96.47
50672;BME280;46021;55.882;37.654;2023-07-29T01:11:18;98549.72;;;13.68;96.36
50672;BME280;46021;55.882;37.654;2023-07-29T01:13:56;98557.38;;;13.71;96.43
50672;BME280;46021;55.882;37.654;2023-07-29T01:16:31;98557.56;;;13.68;95.91
50672;BME280;46021;55.882;37.654;2023-07-29T01:19:05;98550.63;;;13.67;95.95
50672;BME280;46021;55.882;37.654;2023-07-29T01:21:35;98543.72;;;13.65;96.34
50672;BME280;46021;55.882;37.654;2023-07-29T01:24:04;98536.81;;;13.64;96.31
50672;BME280;46021;55.882;37.654;2023-07-29T01:26:31;98533.44;;;13.62;95.96
50672;BME280;46021;55.882;37.654;2023-07-29T01:28:58;98535.31;;;13.60;95.85
50672;BME280;46021;55.882;37.654;2023-07-29T01:31:31;98536.16;;;13.61;96.33
50672;BME280;46021;55.882;37.654;2023-07-29T01:34:04;98542.44;;;13.58;96.21
50672;BME280;46021;55.882;37.654;2023-07-29T01:36:33;98533.66;;;13.59;96.23
50672;BME280;46021;55.882;37.654;2023-07-29T01:39:07;98525.97;;;13.56;96.44
50672;BME280;46021;55.882;37.654;2023-07-29T01:41:34;98523.53;;;13.53;96.33
50672;BME280;46021;55.882;37.654;2023-07-29T01:44:03;98522.91;;;13.50;96.56
50672;BME280;46021;55.882;37.654;2023-07-29T01:46:31;98518.50;;;13.50;95.35
50672;BME280;46021;55.882;37.654;2023-07-29T01:48:58;98512.16;;;13.54;95.97
50672;BME280;46021;55.882;37.654;2023-07-29T01:51:25;98513.06;;;13.53;96.22
50672;BME280;46021;55.882;37.654;2023-07-29T01:53:52;98507.84;;;13.53;96.47
50672;BME280;46021;55.882;37.654;2023-07-29T01:56:22;98504.28;;;13.54;96.52
50672;BME280;46021;55.882;37.654;2023-07-29T01:58:53;98505.13;;;13.55;96.50
50672;BME280;46021;55.882;37.654;2023-07-29T02:01:20;98500.72;;;13.55;96.47
50672;BME280;46021;55.882;37.654;2023-07-29T02:03:47;98505.78;;;13.58;96.81
50672;BME280;46021;55.882;37.654;2023-07-29T02:06:20;98495.69;;;13.52;96.26
50672;BME280;46021;55.882;37.654;2023-07-29T02:08:47;98506.81;;;13.56;96.70
50672;BME280;46021;55.882;37.654;2023-07-29T02:11:14;98500.53;;;13.58;96.66
50672;BME280;46021;55.882;37.654;2023-07-29T02:13:42;98511.09;;;13.57;97.14
50672;BME280;46021;55.882;37.654;2023-07-29T02:16:09;98516.63;;;13.52;96.52
50672;BME280;46021;55.882;37.654;2023-07-29T02:18:36;98519.16;;;13.54;97.12
50672;BME280;46021;55.882;37.654;2023-07-29T02:21:03;98517.56;;;13.51;96.70
50672;BME280;46021;55.882;37.654;2023-07-29T02:23:30;98523.53;;;13.53;96.53
50672;BME280;46021;55.882;37.654;2023-07-29T02:25:57;98520.00;;;13.54;96.46
50672;BME280;46021;55.882;37.654;2023-07-29T02:28:24;98528.59;;;13.56;96.85
50672;BME280;46021;55.882;37.654;2023-07-29T02:31:09;98533.84;;;13.56;96.47
50672;BME280;46021;55.882;37.654;2023-07-29T02:33:37;98539.91;;;13.57;96.40
50672;BME280;46021;55.882;37.654;2023-07-29T02:36:04;98541.69;;;13.56;96.53
50672;BME280;46021;55.882;37.654;2023-07-29T02:38:31;98539.06;;;13.56;96.64
50672;BME280;46021;55.882;37.654;2023-07-29T02:40:58;98547.66;;;13.58;96.87
50672;BME280;46021;55.882;37.654;2023-07-29T02:43:25;98546.75;;;13.59;96.43
50672;BME280;46021;55.882;37.654;2023-07-29T02:45:52;98544.13;;;13.59;96.53
50672;BME280;46021;55.882;37.654;2023-07-29T02:48:20;98541.69;;;13.56;96.37
50672;BME280;46021;55.882;37.654;2023-07-29T02:50:47;98531.53;;;13.52;96.28
50672;BME280;46021;55.882;37.654;2023-07-29T02:53:14;98530.28;;;13.57;96.68
50672;BME280;46021;55.882;37.654;2023-07-29T02:55:41;98521.47;;;13.58;96.63
50672;BME280;46021;55.882;37.654;2023-07-29T02:58:08;98516.44;;;13.55;96.57
50672;BME280;46021;55.882;37.654;2023-07-29T03:00:35;98510.28;;;13.56;96.44
50672;BME280;46021;55.882;37.654;2023-07-29T03:03:02;98505.94;;;13.55;96.52
50672;BME280;46021;55.882;37.654;2023-07-29T03:05:31;98496.44;;;13.54;96.77
50672;BME280;46021;55.882;37.654;2023-07-29T03:07:58;98511.84;;;13.59;96.86
50672;BME280;46021;55.882;37.654;2023-07-29T03:10:25;98521.41;;;13.60;96.68
50672;BME280;46021;55.882;37.654;2023-07-29T03:12:53;98528.41;;;13.59;96.42
50672;BME280;46021;55.882;37.654;2023-07-29T03:15:23;98530.72;;;13.64;97.30
50672;BME280;46021;55.882;37.654;2023-07-29T03:17:50;98539.97;;;13.70;97.21
50672;BME280;46021;55.882;37.654;2023-07-29T03:20:17;98544.81;;;13.76;97.31
50672;BME280;46021;55.882;37.654;2023-07-29T03:22:45;98542.03;;;13.79;97.39
50672;BME280;46021;55.882;37.654;2023-07-29T03:25:13;98539.22;;;13.82;97.29
50672;BME280;46021;55.882;37.654;2023-07-29T03:27:40;98535.66;;;13.83;97.23
50672;BME280;46021;55.882;37.654;2023-07-29T03:30:08;98526.66;;;13.87;97.17
50672;BME280;46021;55.882;37.654;2023-07-29T03:32:35;98520.56;;;13.87;96.15
50672;BME280;46021;55.882;37.654;2023-07-29T03:35:02;98518.41;;;13.93;97.17
50672;BME280;46021;55.882;37.654;2023-07-29T03:37:29;98512.31;;;13.93;96.96
50672;BME280;46021;55.882;37.654;2023-07-29T03:39:58;98503.81;;;13.89;97.04
50672;BME280;46021;55.882;37.654;2023-07-29T03:42:25;98505.81;;;13.86;96.68
50672;BME280;46021;55.882;37.654;2023-07-29T03:44:52;98504.22;;;13.83;96.83
50672;BME280;46021;55.882;37.654;2023-07-29T03:47:19;98499.38;;;13.77;96.38
50672;BME280;46021;55.882;37.654;2023-07-29T03:49:46;98495.91;;;13.76;96.20
50672;BME280;46021;55.882;37.654;2023-07-29T03:52:14;98487.19;;;13.76;96.60
50672;BME280;46021;55.882;37.654;2023-07-29T03:54:42;98479.47;;;13.74;96.92
50672;BME280;46021;55.882;37.654;2023-07-29T03:57:10;98481.22;;;13.74;96.72
50672;BME280;46021;55.882;37.654;2023-07-29T03:59:37;98473.38;;;13.74;96.72
50672;BME280;46021;55.882;37.654;2023-07-29T04:02:04;98478.59;;;13.74;96.81
50672;BME280;46021;55.882;37.654;2023-07-29T04:04:32;98476.72;;;13.76;97.06
50672;BME280;46021;55.882;37.654;2023-07-29T04:06:59;98465.31;;;13.77;96.96
50672;BME280;46021;55.882;37.654;2023-07-29T04:09:26;98469.59;;;13.78;96.89
50672;BME280;46021;55.882;37.654;2023-07-29T04:11:53;98467.00;;;13.78;96.56
50672;BME280;46021;55.882;37.654;2023-07-29T04:14:21;98456.63;;;13.76;96.88
50672;BME280;46021;55.882;37.654;2023-07-29T04:16:48;98467.53;;;13.83;96.90
50672;BME280;46021;55.882;37.654;2023-07-29T04:19:16;98471.84;;;13.84;97.03
50672;BME280;46021;55.882;37.654;2023-07-29T04:21:43;98459.78;;;13.81;96.92
50672;BME280;46021;55.882;37.654;2023-07-29T04:24:10;98481.38;;;13.85;96.47
50672;BME280;46021;55.882;37.654;2023-07-29T04:26:37;98470.16;;;13.83;96.32
50672;BME280;46021;55.882;37.654;2023-07-29T04:29:05;98476.59;;;13.92;96.51
50672;BME280;46021;55.882;37.654;2023-07-29T04:31:33;98476.59;;;13.92;96.19
50672;BME280;46021;55.882;37.654;2023-07-29T04:34:00;98479.44;;;14.01;96.81
50672;BME280;46021;55.882;37.654;2023-07-29T04:36:27;98489.19;;;13.99;94.97
50672;BME280;46021;55.882;37.654;2023-07-29T04:38:54;98478.31;;;14.06;96.03
50672;BME280;46021;55.882;37.654;2023-07-29T04:41:21;98479.13;;;14.06;96.13
50672;BME280;46021;55.882;37.654;2023-07-29T04:43:50;98473.81;;;14.08;96.31
50672;BME280;46021;55.882;37.654;2023-07-29T04:46:18;98459.97;;;14.06;96.32
50672;BME280;46021;55.882;37.654;2023-07-29T04:48:46;98463.88;;;14.13;96.65
50672;BME280;46021;55.882;37.654;2023-07-29T04:51:13;98454.53;;;14.09;96.49
50672;BME280;46021;55.882;37.654;2023-07-29T04:53:40;98461.16;;;14.14;96.11
50672;BME280;46021;55.882;37.654;2023-07-29T04:56:07;98455.28;;;14.11;95.59
50672;BME280;46021;55.882;37.654;2023-07-29T04:58:34;98449.81;;;14.14;96.56
50672;BME280;46021;55.882;37.654;2023-07-29T05:01:01;98450.22;;;14.08;93.94
50672;BME280;46021;55.882;37.654;2023-07-29T05:03:28;98448.97;;;14.13;95.89
50672;BME280;46021;55.882;37.654;2023-07-29T05:05:58;98436.19;;;14.09;95.76
50672;BME280;46021;55.882;37.654;2023-07-29T05:08:27;98441.94;;;14.14;95.69
50672;BME280;46021;55.882;37.654;2023-07-29T05:10:54;98440.09;;;14.16;96.08
50672;BME280;46021;55.882;37.654;2023-07-29T05:13:21;98437.25;;;14.19;95.94
50672;BME280;46021;55.882;37.654;2023-07-29T05:15:49;98431.81;;;14.22;95.61
50672;BME280;46021;55.882;37.654;2023-07-29T05:18:16;98428.97;;;14.25;95.81
50672;BME280;46021;55.882;37.654;2023-07-29T05:20:43;98428.56;;;14.31;95.95
50672;BME280;46021;55.882;37.654;2023-07-29T05:23:12;98426.59;;;14.35;95.74
50672;BME280;46021;55.882;37.654;2023-07-29T05:25:39;98427.00;;;14.41;96.02
50672;BME280;46021;55.882;37.654;2023-07-29T05:28:06;98421.34;;;14.48;96.35
50672;BME280;46021;55.882;37.654;2023-07-29T05:30:33;98420.19;;;14.52;95.05
50672;BME280;46021;55.882;37.654;2023-07-29T05:33:05;98409.38;;;14.56;95.46
50672;BME280;46021;55.882;37.654;2023-07-29T05:35:33;98413.59;;;14.59;95.13
50672;BME280;46021;55.882;37.654;2023-07-29T05:38:01;98409.63;;;14.66;95.45
50672;BME280;46021;55.882;37.654;2023-07-29T05:40:30;98412.53;;;14.74;95.90
50672;BME280;46021;55.882;37.654;2023-07-29T05:42:57;98421.16;;;14.76;94.91
50672;BME280;46021;55.882;37.654;2023-07-29T05:45:24;98415.50;;;14.82;95.18
50672;BME280;46021;55.882;37.654;2023-07-29T05:47:51;98420.31;;;14.89;95.84
50672;BME280;46021;55.882;37.654;2023-07-29T05:50:19;98422.09;;;14.88;93.58
50672;BME280;46021;55.882;37.654;2023-07-29T05:52:46;98426.25;;;15.04;95.20
50672;BME280;46021;55.882;37.654;2023-07-29T05:55:14;98434.75;;;15.07;95.55
50672;BME280;46021;55.882;37.654;2023-07-29T05:57:42;98423.53;;;15.05;96.16
50672;BME280;46021;55.882;37.654;2023-07-29T06:00:10;98430.69;;;15.03;94.69
50672;BME280;46021;55.882;37.654;2023-07-29T06:02:40;98431.19;;;15.08;95.50
50672;BME280;46021;55.882;37.654;2023-07-29T06:05:10;98439.06;;;15.08;95.20
50672;BME280;46021;55.882;37.654;2023-07-29T06:07:37;98451.97;;;15.11;95.14
50672;BME280;46021;55.882;37.654;2023-07-29T06:10:04;98461.63;;;15.11;94.25
50672;BME280;46021;55.882;37.654;2023-07-29T06:12:39;98457.84;;;15.02;94.63
50672;BME280;46021;55.882;37.654;2023-07-29T06:15:17;98465.09;;;14.98;94.99
50672;BME280;46021;55.882;37.654;2023-07-29T06:17:47;98465.97;;;14.99;94.95
50672;BME280;46021;55.882;37.654;2023-07-29T06:20:14;98462.81;;;14.94;94.10
50672;BME280;46021;55.882;37.654;2023-07-29T06:22:41;98472.78;;;15.01;94.59
50672;BME280;46021;55.882;37.654;2023-07-29T06:25:09;98462.81;;;15.07;95.11
50672;BME280;46021;55.882;37.654;2023-07-29T06:27:35;98461.75;;;15.09;94.76
50672;BME280;46021;55.882;37.654;2023-07-29T06:30:03;98472.88;;;15.13;93.83
50672;BME280;46021;55.882;37.654;2023-07-29T06:32:31;98470.88;;;15.16;93.38
50672;BME280;46021;55.882;37.654;2023-07-29T06:34:58;98479.66;;;15.28;94.04
50672;BME280;46021;55.882;37.654;2023-07-29T06:37:25;98478.81;;;15.28;93.64
50672;BME280;46021;55.882;37.654;2023-07-29T06:39:52;98479.75;;;15.27;92.91
50672;BME280;46021;55.882;37.654;2023-07-29T06:42:19;98482.50;;;15.25;94.07
50672;BME280;46021;55.882;37.654;2023-07-29T06:44:46;98490.25;;;15.27;93.24
50672;BME280;46021;55.882;37.654;2023-07-29T06:47:13;98492.88;;;15.27;93.46
50672;BME280;46021;55.882;37.654;2023-07-29T06:49:41;98484.06;;;15.28;93.39
50672;BME280;46021;55.882;37.654;2023-07-29T06:52:08;98494.88;;;15.36;93.41
50672;BME280;46021;55.882;37.654;2023-07-29T06:54:35;98487.81;;;15.36;92.61
50672;BME280;46021;55.882;37.654;2023-07-29T06:57:03;98495.59;;;15.38;93.41
50672;BME280;46021;55.882;37.654;2023-07-29T06:59:30;98491.06;;;15.40;92.33
50672;BME280;46021;55.882;37.654;2023-07-29T07:01:57;98494.53;;;15.40;92.54
50672;BME280;46021;55.882;37.654;2023-07-29T07:04:25;98498.94;;;15.40;92.56
50672;BME280;46021;55.882;37.654;2023-07-29T07:06:54;98495.50;;;15.39;92.56
50672;BME280;46021;55.882;37.654;2023-07-29T07:09:21;98501.38;;;15.43;92.51
50672;BME280;46021;55.882;37.654;2023-07-29T07:11:48;98507.56;;;15.42;91.90
50672;BME280;46021;55.882;37.654;2023-07-29T07:14:15;98509.44;;;15.40;91.81
50672;BME280;46021;55.882;37.654;2023-07-29T07:16:42;98515.34;;;15.31;90.24
50672;BME280;46021;55.882;37.654;2023-07-29T07:19:09;98519.56;;;15.33;91.16
50672;BME280;46021;55.882;37.654;2023-07-29T07:21:36;98511.06;;;15.30;91.70
50672;BME280;46021;55.882;37.654;2023-07-29T07:24:04;98509.91;;;15.34;91.80
50672;BME280;46021;55.882;37.654;2023-07-29T07:26:31;98495.31;;;15.30;91.67
50672;BME280;46021;55.882;37.654;2023-07-29T07:28:58;98511.59;;;15.35;90.66
50672;BME280;46021;55.882;37.654;2023-07-29T07:31:25;98505.09;;;15.28;89.99
50672;BME280;46021;55.882;37.654;2023-07-29T07:33:52;98505.09;;;15.28;90.68
50672;BME280;46021;55.882;37.654;2023-07-29T07:36:19;98505.28;;;15.25;89.80
50672;BME280;46021;55.882;37.654;2023-07-29T07:38:46;98504.56;;;15.23;89.59
50672;BME280;46021;55.882;37.654;2023-07-29T07:41:14;98503.63;;;15.24;90.56
50672;BME280;46021;55.882;37.654;2023-07-29T07:43:41;98500.47;;;15.18;90.00
50672;BME280;46021;55.882;37.654;2023-07-29T07:46:08;98508.75;;;15.25;89.87
50672;BME280;46021;55.882;37.654;2023-07-29T07:48:35;98507.81;;;15.26;90.12
50672;BME280;46021;55.882;37.654;2023-07-29T07:51:10;98496.03;;;15.32;89.53
50672;BME280;46021;55.882;37.654;2023-07-29T07:53:36;98497.50;;;15.36;90.15
50672;BME280;46021;55.882;37.654;2023-07-29T07:56:03;98496.31;;;15.40;89.56
50672;BME280;46021;55.882;37.654;2023-07-29T07:58:32;98499.78;;;15.40;88.78
50672;BME280;46021;55.882;37.654;2023-07-29T08:01:01;98509.63;;;15.50;89.74
50672;BME280;46021;55.882;37.654;2023-07-29T08:03:28;98507.31;;;15.58;90.15
50672;BME280;46021;55.882;37.654;2023-07-29T08:05:55;98508.16;;;15.58;88.77
50672;BME280;46021;55.882;37.654;2023-07-29T08:08:22;98504.81;;;15.56;89.09
50672;BME280;46021;55.882;37.654;2023-07-29T08:10:49;98511.97;;;15.54;88.23
50672;BME280;46021;55.882;37.654;2023-07-29T08:13:16;98510.72;;;15.47;88.94
50672;BME280;46021;55.882;37.654;2023-07-29T08:15:47;98505.28;;;15.37;88.75
50672;BME280;46021;55.882;37.654;2023-07-29T08:18:14;98507.16;;;15.35;88.33
50672;BME280;46021;55.882;37.654;2023-07-29T08:20:41;98505.09;;;15.28;89.01
50672;BME280;46021;55.882;37.654;2023-07-29T08:23:08;98508.44;;;15.30;88.56
50672;BME280;46021;55.882;37.654;2023-07-29T08:25:35;98508.63;;;15.27;88.37
50672;BME280;46021;55.882;37.654;2023-07-29T08:28:02;98515.06;;;15.23;87.95
50672;BME280;46021;55.882;37.654;2023-07-29T08:30:30;98521.13;;;15.23;87.92
50672;BME280;46021;55.882;37.654;2023-07-29T08:32:59;98519.78;;;15.17;88.05
50672;BME280;46021;55.882;37.654;2023-07-29T08:35:26;98518.50;;;15.10;88.30
50672;BME280;46021;55.882;37.654;2023-07-29T08:37:52;98523.16;;;15.07;87.91
50672;BME280;46021;55.882;37.654;2023-07-29T08:40:27;98538.47;;;15.00;88.24
50672;BME280;46021;55.882;37.654;2023-07-29T08:42:57;98535.84;;;15.00;88.42
50672;BME280;46021;55.882;37.654;2023-07-29T08:45:25;98533.97;;;15.02;88.25
50672;BME280;46021;55.882;37.654;2023-07-29T08:47:52;98537.31;;;15.04;87.97
50672;BME280;46021;55.882;37.654;2023-07-29T08:50:25;98532.59;;;15.09;88.53
50672;BME280;46021;55.882;37.654;2023-07-29T08:52:54;98520.22;;;15.11;88.36
50672;BME280;46021;55.882;37.654;2023-07-29T08:55:22;98526.72;;;15.18;88.78
50672;BME280;46021;55.882;37.654;2023-07-29T08:57:49;98530.81;;;15.23;88.51
50672;BME280;46021;55.882;37.654;2023-07-29T09:00:17;98529.13;;;15.21;89.00
50672;BME280;46021;55.882;37.654;2023-07-29T09:02:44;98521.75;;;15.27;88.60
50672;BME280;46021;55.882;37.654;2023-07-29T09:05:11;98527.34;;;15.35;88.37
50672;BME280;46021;55.882;37.654;2023-07-29T09:07:40;98523.53;;;15.39;88.27
50672;BME280;46021;55.882;37.654;2023-07-29T09:10:09;98524.78;;;15.46;88.16
50672;BME280;46021;55.882;37.654;2023-07-29T09:12:37;98522.47;;;15.54;88.20
50672;BME280;46021;55.882;37.654;2023-07-29T09:15:04;98515.84;;;15.62;88.79
50672;BME280;46021;55.882;37.654;2023-07-29T09:17:31;98525.69;;;15.71;86.73
50672;BME280;46021;55.882;37.654;2023-07-29T09:19:59;98525.75;;;15.82;88.66
50672;BME280;46021;55.882;37.654;2023-07-29T09:22:27;98524.25;;;15.91;88.66
50672;BME280;46021;55.882;37.654;2023-07-29T09:24:57;98529.06;;;15.97;87.51
50672;BME280;46021;55.882;37.654;2023-07-29T09:27:24;98524.44;;;16.01;87.43
50672;BME280;46021;55.882;37.654;2023-07-29T09:29:52;98522.53;;;16.03;87.33
50672;BME280;46021;55.882;37.654;2023-07-29T09:32:19;98531.13;;;16.05;87.26
50672;BME280;46021;55.882;37.654;2023-07-29T09:34:47;98527.56;;;16.06;87.28
50672;BME280;46021;55.882;37.654;2023-07-29T09:37:18;98532.81;;;16.06;87.83
50672;BME280;46021;55.882;37.654;2023-07-29T09:39:47;98532.81;;;16.06;86.87
50672;BME280;46021;55.882;37.654;2023-07-29T09:42:20;98529.25;;;16.07;86.37
50672;BME280;46021;55.882;37.654;2023-07-29T09:44:48;98543.56;;;16.03;86.61
50672;BME280;46021;55.882;37.654;2023-07-29T09:47:20;98540.19;;;16.01;86.52
50672;BME280;46021;55.882;37.654;2023-07-29T09:49:47;98545.47;;;16.01;86.11
50672;BME280;46021;55.882;37.654;2023-07-29T09:52:15;98540.88;;;15.91;85.76
50672;BME280;46021;55.882;37.654;2023-07-29T09:54:43;98540.59;;;15.83;85.38
50672;BME280;46021;55.882;37.654;2023-07-29T09:57:11;98548.69;;;15.80;86.23
50672;BME280;46021;55.882;37.654;2023-07-29T09:59:39;98542.38;;;15.70;85.92
50672;BME280;46021;55.882;37.654;2023-07-29T10:02:09;98541.31;;;15.72;86.29
50672;BME280;46021;55.882;37.654;2023-07-29T10:04:41;98556.06;;;15.75;86.25
50672;BME280;46021;55.882;37.654;2023-07-29T10:07:09;98552.16;;;15.81;86.65
50672;BME280;46021;55.882;37.654;2023-07-29T10:09:39;98541.97;;;15.76;85.78
50672;BME280;46021;55.882;37.654;2023-07-29T10:12:07;98544.06;;;15.71;85.21
50672;BME280;46021;55.882;37.654;2023-07-29T10:14:35;98534.50;;;15.70;85.88
50672;BME280;46021;55.882;37.654;2023-07-29T10:17:05;98549.53;;;15.81;85.50
50672;BME280;46021;55.882;37.654;2023-07-29T10:19:34;98546.13;;;15.91;86.70
50672;BME280;46021;55.882;37.654;2023-07-29T10:22:03;98543.56;;;16.03;86.71
50672;BME280;46021;55.882;37.654;2023-07-29T10:24:32;98538.09;;;16.06;86.00
50672;BME280;46021;55.882;37.654;2023-07-29T10:27:00;98539.94;;;16.16;85.64
50672;BME280;46021;55.882;37.654;2023-07-29T10:29:31;98539.03;;;16.29;85.79
50672;BME280;46021;55.882;37.654;2023-07-29T10:32:02;98542.88;;;16.36;85.90
50672;BME280;46021;55.882;37.654;2023-07-29T10:34:31;98546.13;;;16.40;85.68
50672;BME280;46021;55.882;37.654;2023-07-29T10:36:58;98540.72;;;16.30;85.60
50672;BME280;46021;55.882;37.654;2023-07-29T10:39:26;98544.03;;;16.21;84.33
50672;BME280;46021;55.882;37.654;2023-07-29T10:43:39;98542.06;;;16.11;85.10
50672;BME280;46021;55.882;37.654;2023-07-29T10:46:16;98545.16;;;16.05;85.55
50672;BME280;46021;55.882;37.654;2023-07-29T10:48:44;98541.66;;;16.05;85.97
50672;BME280;46021;55.882;37.654;2023-07-29T10:51:22;98552.16;;;16.05;86.04
50672;BME280;46021;55.882;37.654;2023-07-29T10:53:52;98548.81;;;16.03;86.73
50672;BME280;46021;55.882;37.654;2023-07-29T10:56:26;98545.69;;;15.97;85.84
50672;BME280;46021;55.882;37.654;2023-07-29T10:58:56;98558.84;;;15.97;86.25
50672;BME280;46021;55.882;37.654;2023-07-29T11:01:28;98548.53;;;15.94;86.30
50672;BME280;46021;55.882;37.654;2023-07-29T11:09:59;98547.81;;;15.92;86.66
50672;BME280;46021;55.882;37.654;2023-07-29T11:12:41;98543.38;;;15.93;85.87
50672;BME280;46021;55.882;37.654;2023-07-29T11:15:17;98538.84;;;15.95;86.87
50672;BME280;46021;55.882;37.654;2023-07-29T11:17:46;98542.09;;;15.98;86.40
50672;BME280;46021;55.882;37.654;2023-07-29T11:20:15;98550.97;;;15.97;85.93
50672;BME280;46021;55.882;37.654;2023-07-29T11:22:42;98548.19;;;15.99;86.59
50672;BME280;46021;55.882;37.654;2023-07-29T11:25:10;98551.56;;;16.01;86.87
50672;BME280;46021;55.882;37.654;2023-07-29T11:27:38;98537.69;;;15.99;86.09
50672;BME280;46021;55.882;37.654;2023-07-29T11:30:06;98537.47;;;16.02;86.32
50672;BME280;46021;55.882;37.654;2023-07-29T11:32:36;98543.56;;;16.03;86.28
50672;BME280;46021;55.882;37.654;2023-07-29T11:35:05;98546.69;;;16.08;86.15
50672;BME280;46021;55.882;37.654;2023-07-29T11:37:33;98549.84;;;16.13;86.12
50672;BME280;46021;55.882;37.654;2023-07-29T11:40:00;98547.94;;;16.15;86.67
50672;BME280;46021;55.882;37.654;2023-07-29T11:42:31;98556.53;;;16.17;85.64
50672;BME280;46021;55.882;37.654;2023-07-29T11:44:58;98560.84;;;16.18;85.42
50672;BME280;46021;55.882;37.654;2023-07-29T11:47:25;98554.03;;;16.15;86.33
50672;BME280;46021;55.882;37.654;2023-07-29T11:49:58;98558.91;;;16.09;85.37
50672;BME280;46021;55.882;37.654;2023-07-29T11:52:25;98566.34;;;16.15;84.88
50672;BME280;46021;55.882;37.654;2023-07-29T11:54:52;98566.34;;;16.15;85.18
50672;BME280;46021;55.882;37.654;2023-07-29T11:57:19;98578.19;;;16.21;83.93
50672;BME280;46021;55.882;37.654;2023-07-29T11:59:46;98566.84;;;16.20;85.94
50672;BME280;46021;55.882;37.654;2023-07-29T12:02:15;98573.03;;;16.19;85.40
50672;BME280;46021;55.882;37.654;2023-07-29T12:04:44;98570.63;;;16.16;85.38
50672;BME280;46021;55.882;37.654;2023-07-29T12:07:13;98579.47;;;16.15;85.26
50672;BME280;46021;55.882;37.654;2023-07-29T12:09:41;98589.16;;;16.14;85.23
50672;BME280;46021;55.882;37.654;2023-07-29T12:12:09;98583.28;;;16.11;85.22
50672;BME280;46021;55.882;37.654;2023-07-29T12:14:36;98580.97;;;16.06;85.14
50672;BME280;46021;55.882;37.654;2023-07-29T12:17:05;98578.44;;;16.05;86.22
50672;BME280;46021;55.882;37.654;2023-07-29T12:19:33;98588.75;;;16.08;85.45
50672;BME280;46021;55.882;37.654;2023-07-29T12:22:00;98587.19;;;16.05;85.45
50672;BME280;46021;55.882;37.654;2023-07-29T12:24:31;98592.94;;;16.10;85.97
50672;BME280;46021;55.882;37.654;2023-07-29T12:26:58;98590.22;;;16.12;86.13
50672;BME280;46021;55.882;37.654;2023-07-29T12:29:25;98585.81;;;16.12;84.74
50672;BME280;46021;55.882;37.654;2023-07-29T12:31:58;98578.97;;;16.10;85.65
50672;BME280;46021;55.882;37.654;2023-07-29T12:34:26;98583.19;;;16.12;85.73
50672;BME280;46021;55.882;37.654;2023-07-29T12:36:55;98575.88;;;16.16;85.79
50672;BME280;46021;55.882;37.654;2023-07-29T12:39:23;98571.88;;;16.23;86.25
50672;BME280;46021;55.882;37.654;2023-07-29T12:41:54;98565.56;;;16.26;85.31
50672;BME280;46021;55.882;37.654;2023-07-29T12:44:22;98568.56;;;16.32;85.55
50672;BME280;46021;55.882;37.654;2023-07-29T12:46:49;98569.19;;;16.36;86.02
50672;BME280;46021;55.882;37.654;2023-07-29T12:49:17;98565.25;;;16.42;85.56
50672;BME280;46021;55.882;37.654;2023-07-29T12:51:44;98573.31;;;16.51;85.74
50672;BME280;46021;55.882;37.654;2023-07-29T12:54:11;98569.59;;;16.54;85.83
50672;BME280;46021;55.882;37.654;2023-07-29T12:56:38;98571.06;;;16.58;85.15
50672;BME280;46021;55.882;37.654;2023-07-29T12:59:06;98572.75;;;16.59;85.53
50672;BME280;46021;55.882;37.654;2023-07-29T13:01:33;98571.56;;;16.63;85.18
50672;BME280;46021;55.882;37.654;2023-07-29T13:04:00;98566.91;;;16.67;85.88